Terminal Aerodrome Forecast
Issued by NWS Louisville, KY

Home | Current Version | Previous Version | Text Only | Print | Product List | Glossary On
Versions: 1 2 3 4 5 6 7 8 9 10 11 12 13 14 15 16 17 18 19
000
FTUS43 KLMK 241147
TAFSDF
TAF
KSDF 241147Z 2412/2518 30005KT P6SM SCT150
     FM241600 29011G18KT P6SM SCT050
     FM250300 30005KT P6SM FEW250
     FM251400 26010KT P6SM SCT060=

USA.gov is the U.S. government's official web portal to all federal, state and local government web resources and services.